createdAt,value
2024-04-17T00:01:18.974Z,13.35
2024-04-17T00:03:46.775Z,12.57
2024-04-17T00:06:14.644Z,13.00
2024-04-17T00:08:41.920Z,12.60
2024-04-17T00:11:09.415Z,14.88
2024-04-17T00:13:37.939Z,13.00
2024-04-17T00:16:05.712Z,17.23
2024-04-17T00:18:33.058Z,17.15
2024-04-17T00:21:00.698Z,11.40
2024-04-17T00:23:28.616Z,11.07
2024-04-17T00:25:55.954Z,16.73
2024-04-17T00:28:26.710Z,15.73
2024-04-17T00:30:54.428Z,17.90
2024-04-17T00:33:22.171Z,13.25
2024-04-17T00:35:49.765Z,14.32
2024-04-17T00:38:17.258Z,16.77
2024-04-17T00:40:44.622Z,12.20
2024-04-17T00:43:12.052Z,15.82
2024-04-17T00:45:46.245Z,14.30
2024-04-17T00:48:14.938Z,17.73
2024-04-17T00:50:46.632Z,16.25
2024-04-17T00:53:18.656Z,16.27
2024-04-17T00:55:47.587Z,16.95
2024-04-17T00:58:16.244Z,17.85
2024-04-17T01:00:43.559Z,18.90
2024-04-17T01:03:11.213Z,14.40
2024-04-17T01:05:38.527Z,12.43
2024-04-17T01:08:07.819Z,12.73
2024-04-17T01:10:35.832Z,13.60
2024-04-17T01:13:03.503Z,11.48
2024-04-17T01:15:30.814Z,15.73
2024-04-17T01:18:00.249Z,15.20
2024-04-17T01:20:27.698Z,13.95
2024-04-17T01:22:54.944Z,14.77
2024-04-17T01:25:22.299Z,11.55
2024-04-17T01:27:49.436Z,17.30
2024-04-17T01:30:16.787Z,16.73
2024-04-17T01:32:44.330Z,15.43
2024-04-17T01:35:11.633Z,15.20
2024-04-17T01:37:38.808Z,12.48
2024-04-17T01:40:06.489Z,13.05
2024-04-17T01:42:33.794Z,13.30
2024-04-17T01:45:01.110Z,15.55
2024-04-17T01:47:31.472Z,15.48
2024-04-17T01:50:02.368Z,15.98
2024-04-17T01:52:31.387Z,15.18
2024-04-17T01:54:58.528Z,14.20
2024-04-17T01:57:25.652Z,14.15
2024-04-17T01:59:53.092Z,14.10
2024-04-17T02:02:20.284Z,14.45
2024-04-17T02:04:47.584Z,20.80
2024-04-17T02:07:14.864Z,13.88
2024-04-17T02:09:42.013Z,15.07
2024-04-17T02:12:09.549Z,13.82
2024-04-17T02:14:36.937Z,13.35
2024-04-17T02:17:04.267Z,18.88
2024-04-17T02:19:51.298Z,19.75
2024-04-17T02:22:18.566Z,17.48
2024-04-17T02:24:45.706Z,15.70
2024-04-17T02:27:12.934Z,17.10
2024-04-17T02:29:39.999Z,19.52
2024-04-17T02:32:08.495Z,17.95
2024-04-17T02:34:35.867Z,15.00
2024-04-17T02:37:03.162Z,17.25
2024-04-17T02:39:30.371Z,20.77
2024-04-17T02:41:57.613Z,13.80
2024-04-17T02:44:24.767Z,24.15
2024-04-17T02:46:52.203Z,12.32
2024-04-17T02:49:19.771Z,14.15
2024-04-17T02:51:47.470Z,18.25
2024-04-17T02:54:14.604Z,17.83
2024-04-17T02:56:42.050Z,13.48
2024-04-17T02:59:09.288Z,14.68
2024-04-17T03:01:36.566Z,17.40
2024-04-17T03:04:04.128Z,18.02
2024-04-17T03:06:31.301Z,19.52
2024-04-17T03:08:58.504Z,15.18
2024-04-17T03:11:25.774Z,15.50
2024-04-17T03:13:53.162Z,19.58
2024-04-17T03:16:20.553Z,17.05
2024-04-17T03:18:47.849Z,17.80
2024-04-17T03:21:15.085Z,16.92
2024-04-17T03:23:42.525Z,19.27
2024-04-17T03:26:09.755Z,13.73
2024-04-17T03:28:37.108Z,21.42
2024-04-17T03:31:04.482Z,17.63
2024-04-17T03:33:31.786Z,15.30
2024-04-17T03:36:00.417Z,19.30
2024-04-17T03:38:28.075Z,19.10
2024-04-17T03:40:56.603Z,17.58
2024-04-17T03:43:24.574Z,19.05
2024-04-17T03:45:52.096Z,19.15
2024-04-17T03:48:19.417Z,16.55
2024-04-17T03:50:46.832Z,20.55
2024-04-17T03:53:14.174Z,18.00
2024-04-17T03:55:41.476Z,20.15
2024-04-17T03:58:08.959Z,21.30
2024-04-17T04:00:36.253Z,18.00
2024-04-17T04:03:03.785Z,12.70
2024-04-17T04:05:31.028Z,13.45
2024-04-17T04:07:58.374Z,13.45
2024-04-17T04:10:25.725Z,14.98
2024-04-17T04:12:53.176Z,14.90
2024-04-17T04:15:20.363Z,11.98
2024-04-17T04:17:47.705Z,11.18
2024-04-17T04:20:15.166Z,13.18
2024-04-17T04:22:42.586Z,13.85
2024-04-17T04:25:09.904Z,13.73
2024-04-17T04:27:37.196Z,9.85
2024-04-17T04:30:04.784Z,16.90
2024-04-17T04:32:32.420Z,9.82
2024-04-17T04:34:59.817Z,10.93
2024-04-17T04:37:27.555Z,10.30
2024-04-17T04:39:54.927Z,11.65
2024-04-17T04:42:22.134Z,11.85
2024-04-17T04:44:50.062Z,13.75
2024-04-17T04:47:17.396Z,10.05
2024-04-17T04:49:46.549Z,11.25
2024-04-17T04:52:13.997Z,21.60
2024-04-17T04:54:41.375Z,15.50
2024-04-17T04:57:08.653Z,15.57
2024-04-17T04:59:36.420Z,17.25
2024-04-17T05:02:04.662Z,10.68
2024-04-17T05:04:32.002Z,11.85
2024-04-17T05:06:59.325Z,14.43
2024-04-17T05:09:28.297Z,10.75
2024-04-17T05:11:55.916Z,13.23
2024-04-17T05:14:23.372Z,10.02
2024-04-17T05:16:50.905Z,10.38
2024-04-17T05:19:18.317Z,10.27
2024-04-17T05:21:45.691Z,11.57
2024-04-17T05:24:13.188Z,8.60
2024-04-17T05:26:40.544Z,13.63
2024-04-17T05:29:07.834Z,12.50
2024-04-17T05:31:35.153Z,18.48
2024-04-17T05:34:02.658Z,14.93
2024-04-17T05:36:30.005Z,14.95
2024-04-17T05:38:57.203Z,12.82
2024-04-17T05:41:24.496Z,12.88
2024-04-17T05:43:51.865Z,10.43
2024-04-17T05:46:19.258Z,13.15
2024-04-17T05:48:46.867Z,8.70
2024-04-17T05:51:14.031Z,9.52
2024-04-17T05:53:41.332Z,7.88
2024-04-17T05:56:08.776Z,14.77
2024-04-17T05:58:36.006Z,11.40
2024-04-17T06:01:03.369Z,11.27
2024-04-17T06:03:30.678Z,11.68
2024-04-17T06:05:58.099Z,10.48
2024-04-17T06:08:25.379Z,10.13
2024-04-17T06:10:52.931Z,16.27
2024-04-17T06:13:20.312Z,9.65
2024-04-17T06:15:48.658Z,9.07
2024-04-17T06:18:16.113Z,10.40
2024-04-17T06:20:43.563Z,11.75
2024-04-17T06:23:11.152Z,10.45
2024-04-17T06:25:43.047Z,10.43
2024-04-17T06:28:10.447Z,8.45
2024-04-17T06:30:38.114Z,10.02
2024-04-17T06:33:05.752Z,12.75
2024-04-17T06:35:34.342Z,12.70
2024-04-17T06:38:02.242Z,14.00
2024-04-17T06:40:29.634Z,13.98
2024-04-17T06:42:57.237Z,15.57
2024-04-17T06:45:24.530Z,15.73
2024-04-17T06:47:51.970Z,11.23
2024-04-17T06:50:19.269Z,10.75
2024-04-17T06:52:46.579Z,9.55
2024-04-17T06:55:14.196Z,8.13
2024-04-17T06:57:41.507Z,9.55
2024-04-17T07:00:11.187Z,10.32
2024-04-17T07:02:45.993Z,12.45
2024-04-17T07:05:16.897Z,6.90
2024-04-17T07:07:44.166Z,7.07
2024-04-17T07:10:11.942Z,6.50
2024-04-17T07:12:40.420Z,6.10
2024-04-17T07:15:07.749Z,3.37
2024-04-17T07:17:35.005Z,7.82
2024-04-17T07:20:02.571Z,5.43
2024-04-17T07:22:31.464Z,6.18
2024-04-17T07:24:58.960Z,3.92
2024-04-17T07:27:26.256Z,5.45
2024-04-17T07:29:53.504Z,5.95
2024-04-17T07:32:21.459Z,4.78
2024-04-17T07:34:48.827Z,3.97
2024-04-17T07:37:16.632Z,6.65
2024-04-17T07:39:43.871Z,5.75
2024-04-17T07:42:11.181Z,4.97
2024-04-17T07:44:38.495Z,3.90
2024-04-17T07:47:06.151Z,5.32
2024-04-17T07:49:33.714Z,4.35
2024-04-17T07:52:00.874Z,1.35
2024-04-17T07:54:28.315Z,4.32
2024-04-17T07:56:56.763Z,3.55
2024-04-17T07:59:24.090Z,3.35
2024-04-17T08:01:51.355Z,3.95
2024-04-17T08:04:18.698Z,3.97
2024-04-17T08:06:45.940Z,6.60
2024-04-17T08:09:13.279Z,3.60
2024-04-17T08:11:41.148Z,4.70
2024-04-17T08:14:08.696Z,2.28
2024-04-17T08:16:36.180Z,2.70
2024-04-17T08:19:03.634Z,2.08
2024-04-17T08:21:30.781Z,5.45
2024-04-17T08:23:58.457Z,2.00
2024-04-17T08:26:25.851Z,3.17
2024-04-17T08:28:53.363Z,3.22
2024-04-17T08:31:20.586Z,4.43
2024-04-17T08:33:48.018Z,2.97
2024-04-17T08:36:15.345Z,2.75
2024-04-17T08:38:42.702Z,3.47
2024-04-17T08:41:10.037Z,3.22
2024-04-17T08:43:38.724Z,4.43
2024-04-17T08:46:07.407Z,2.15
2024-04-17T08:48:35.137Z,3.15
2024-04-17T08:51:03.949Z,4.18
2024-04-17T08:53:33.258Z,4.88
2024-04-17T08:56:00.638Z,4.75
2024-04-17T08:58:28.124Z,3.88
2024-04-17T09:00:57.108Z,6.65
2024-04-17T09:03:26.002Z,3.08
2024-04-17T09:05:57.106Z,1.95
2024-04-17T09:08:26.627Z,6.10
2024-04-17T09:10:56.344Z,4.88
2024-04-17T09:13:23.883Z,2.58
2024-04-17T09:15:51.955Z,3.42
2024-04-17T09:18:28.337Z,3.25
2024-04-17T09:20:57.057Z,3.08
2024-04-17T09:23:25.345Z,4.78
2024-04-17T09:25:56.063Z,6.10
2024-04-17T09:28:24.421Z,4.03
2024-04-17T09:30:51.892Z,3.42
2024-04-17T09:33:19.232Z,4.45
2024-04-17T09:35:46.651Z,5.75
2024-04-17T09:38:17.442Z,6.50
2024-04-17T09:40:45.976Z,6.95
2024-04-17T09:43:29.006Z,5.32
2024-04-17T09:46:07.727Z,6.60
2024-04-17T09:48:42.541Z,7.88
2024-04-17T09:51:12.581Z,4.72
2024-04-17T09:53:54.759Z,6.22
2024-04-17T09:56:23.687Z,6.00
2024-04-17T09:58:59.549Z,9.27
2024-04-17T10:01:32.778Z,5.68
2024-04-17T10:04:01.582Z,6.83
2024-04-17T10:06:30.635Z,5.97
2024-04-17T10:09:00.211Z,9.15
2024-04-17T10:11:28.378Z,8.20
2024-04-17T10:13:56.632Z,6.80
2024-04-17T10:16:24.221Z,7.03
2024-04-17T10:18:52.435Z,9.95
2024-04-17T10:21:22.905Z,11.48
2024-04-17T10:24:12.806Z,12.48
2024-04-17T10:26:48.151Z,7.13
2024-04-17T10:29:24.250Z,11.05
2024-04-17T10:31:57.779Z,11.57
2024-04-17T10:34:27.700Z,10.55
2024-04-17T10:36:59.589Z,10.35
2024-04-17T10:39:28.326Z,10.60
2024-04-17T10:41:55.940Z,13.27
2024-04-17T10:44:23.753Z,8.30
2024-04-17T10:47:02.176Z,11.40
2024-04-17T10:49:29.711Z,12.93
2024-04-17T10:51:57.086Z,8.23
2024-04-17T10:54:25.028Z,10.82
2024-04-17T10:56:52.416Z,11.20
2024-04-17T10:59:26.995Z,12.95
2024-04-17T11:01:54.309Z,13.55
2024-04-17T11:04:21.699Z,10.77
2024-04-17T11:06:50.670Z,15.80
2024-04-17T11:09:18.525Z,14.15
2024-04-17T11:11:49.565Z,13.88
2024-04-17T11:14:17.302Z,15.40
2024-04-17T11:16:47.804Z,16.95
2024-04-17T11:19:16.166Z,12.77
2024-04-17T11:21:47.234Z,9.98
2024-04-17T11:24:19.612Z,5.65
2024-04-17T11:26:47.634Z,10.77
2024-04-17T11:29:26.512Z,11.52
2024-04-17T11:32:01.406Z,9.85
2024-04-17T11:34:28.711Z,7.80
2024-04-17T11:37:05.228Z,6.05
2024-04-17T11:39:38.039Z,8.90
2024-04-17T11:42:08.469Z,8.45
2024-04-17T11:44:40.818Z,7.15
2024-04-17T11:47:16.533Z,7.57
2024-04-17T11:49:44.733Z,6.40
2024-04-17T11:52:14.343Z,4.68
2024-04-17T11:54:42.255Z,5.00
2024-04-17T11:57:13.490Z,7.88
2024-04-17T11:59:43.656Z,3.40
2024-04-17T12:02:10.928Z,6.40
2024-04-17T12:04:38.607Z,6.03
2024-04-17T12:07:06.010Z,4.28
2024-04-17T12:09:33.301Z,5.53
2024-04-17T12:12:00.721Z,2.97
2024-04-17T12:14:27.971Z,1.60
2024-04-17T12:16:57.504Z,3.97
2024-04-17T12:19:24.904Z,4.40
2024-04-17T12:21:52.111Z,4.30
2024-04-17T12:24:21.205Z,2.10
2024-04-17T12:26:52.634Z,4.30
2024-04-17T12:29:21.490Z,4.63
2024-04-17T12:31:49.863Z,5.22
2024-04-17T12:34:17.578Z,3.77
2024-04-17T12:36:44.997Z,6.47
2024-04-17T12:39:13.478Z,2.58
2024-04-17T12:41:40.953Z,3.72
2024-04-17T12:44:08.395Z,4.90
2024-04-17T12:46:35.744Z,2.83
2024-04-17T12:49:03.103Z,3.35
2024-04-17T12:51:30.451Z,4.32
2024-04-17T12:53:57.656Z,2.30
2024-04-17T12:56:25.006Z,3.65
2024-04-17T12:58:52.464Z,5.20
2024-04-17T13:01:19.650Z,4.55
2024-04-17T13:03:47.064Z,4.07
2024-04-17T13:06:15.230Z,3.55
2024-04-17T13:08:42.901Z,2.58
2024-04-17T13:11:13.303Z,2.38
2024-04-17T13:13:42.692Z,2.65
2024-04-17T13:16:09.974Z,3.53
2024-04-17T13:18:39.050Z,4.22
2024-04-17T13:21:06.797Z,3.95
2024-04-17T13:23:35.342Z,2.53
2024-04-17T13:26:03.980Z,2.85
2024-04-17T13:28:35.494Z,4.35
2024-04-17T13:31:05.165Z,3.03
2024-04-17T13:33:35.653Z,5.72
2024-04-17T13:36:08.495Z,5.30
2024-04-17T13:38:35.846Z,2.17
2024-04-17T13:41:06.181Z,1.80
2024-04-17T13:43:37.911Z,4.40
2024-04-17T13:46:07.603Z,3.35
2024-04-17T13:51:04.140Z,3.97
2024-04-17T13:53:32.906Z,1.67
2024-04-17T13:56:00.427Z,3.13
2024-04-17T13:58:30.655Z,2.88
2024-04-17T14:00:58.126Z,2.42
2024-04-17T14:03:26.586Z,2.40
2024-04-17T14:05:54.518Z,2.15
2024-04-17T14:08:24.179Z,2.42
2024-04-17T14:10:52.543Z,4.00
2024-04-17T14:13:19.847Z,2.65
2024-04-17T14:15:47.246Z,1.90
2024-04-17T14:18:14.984Z,1.67
2024-04-17T14:20:42.606Z,3.85
2024-04-17T14:23:11.727Z,3.15
2024-04-17T14:28:07.532Z,3.78
2024-04-17T14:30:35.079Z,5.72
2024-04-17T14:33:02.761Z,2.05
2024-04-17T14:35:30.261Z,5.10
2024-04-17T14:37:57.642Z,4.07
2024-04-17T14:40:24.934Z,5.13
2024-04-17T14:42:52.100Z,6.70
2024-04-17T14:45:19.322Z,3.13
2024-04-17T14:47:46.806Z,4.03
2024-04-17T14:50:20.234Z,8.18
2024-04-17T14:52:49.253Z,8.57
2024-04-17T14:55:16.560Z,9.02
2024-04-17T14:57:44.792Z,3.60
2024-04-17T15:00:12.664Z,7.15
2024-04-17T15:02:40.090Z,4.95
2024-04-17T15:05:08.327Z,4.38
2024-04-17T15:07:35.579Z,4.82
2024-04-17T15:10:02.959Z,5.55
2024-04-17T15:12:30.678Z,7.03
2024-04-17T15:14:58.070Z,5.03
2024-04-17T15:17:25.796Z,4.75
2024-04-17T15:19:53.155Z,3.58
2024-04-17T15:22:20.454Z,3.67
2024-04-17T15:24:48.479Z,5.20
2024-04-17T15:27:15.919Z,9.15
2024-04-17T15:29:46.180Z,6.75
2024-04-17T15:32:13.424Z,3.80
2024-04-17T15:34:40.893Z,5.93
2024-04-17T15:37:09.985Z,4.30
2024-04-17T15:39:37.408Z,6.10
2024-04-17T15:42:04.932Z,4.90
2024-04-17T15:44:32.680Z,4.70
2024-04-17T15:47:00.106Z,5.25
2024-04-17T15:49:28.402Z,4.75
2024-04-17T15:51:57.304Z,4.32
2024-04-17T15:54:25.727Z,6.15
2024-04-17T15:56:53.168Z,5.90
2024-04-17T15:59:20.587Z,5.38
2024-04-17T16:01:50.139Z,7.13
2024-04-17T16:04:18.884Z,5.50
2024-04-17T16:06:46.752Z,4.10
2024-04-17T16:09:17.313Z,6.97
2024-04-17T16:11:44.895Z,6.70
2024-04-17T16:14:13.323Z,6.57
2024-04-17T16:16:40.907Z,10.10
2024-04-17T16:19:08.462Z,10.20
2024-04-17T16:21:36.232Z,7.88
2024-04-17T16:24:07.415Z,6.88
2024-04-17T16:26:35.097Z,14.15
2024-04-17T16:29:02.751Z,13.45
2024-04-17T16:31:34.442Z,10.30
2024-04-17T16:34:02.129Z,10.98
2024-04-17T16:36:29.672Z,8.60
2024-04-17T16:38:57.198Z,9.70
2024-04-17T16:41:24.674Z,8.13
2024-04-17T16:43:52.230Z,8.50
2024-04-17T16:46:19.833Z,16.17
2024-04-17T16:48:47.890Z,8.23
2024-04-17T16:51:16.031Z,6.32
2024-04-17T16:53:46.863Z,5.38
2024-04-17T16:56:14.536Z,8.25
2024-04-17T16:58:42.068Z,9.35
2024-04-17T17:01:14.059Z,7.18
2024-04-17T17:03:41.792Z,9.93
2024-04-17T17:06:09.719Z,10.65
2024-04-17T17:08:38.850Z,9.00
2024-04-17T17:11:07.352Z,10.40
2024-04-17T17:13:38.930Z,12.65
2024-04-17T17:16:07.262Z,11.02
2024-04-17T17:18:35.901Z,11.35
2024-04-17T17:21:10.061Z,13.00
2024-04-17T17:23:38.306Z,15.68
2024-04-17T17:26:13.474Z,24.38
2024-04-17T17:28:43.366Z,11.48
2024-04-17T17:31:10.983Z,11.15
2024-04-17T17:33:38.970Z,12.82
2024-04-17T17:36:08.133Z,10.45
2024-04-17T17:38:41.826Z,14.45
2024-04-17T17:41:17.642Z,13.20
2024-04-17T17:43:45.461Z,12.60
2024-04-17T17:46:21.652Z,9.40
2024-04-17T17:48:53.989Z,11.63
2024-04-17T17:51:25.007Z,9.55
2024-04-17T17:53:52.493Z,7.65
2024-04-17T17:56:23.558Z,9.15
2024-04-17T17:59:00.607Z,7.68
2024-04-17T18:01:34.035Z,7.45
2024-04-17T18:04:02.153Z,8.00
2024-04-17T18:06:30.332Z,5.70
2024-04-17T18:09:00.516Z,5.63
2024-04-17T18:11:28.871Z,6.05
2024-04-17T18:13:56.319Z,4.75
2024-04-17T18:16:29.716Z,5.47
2024-04-17T18:19:03.765Z,4.70
2024-04-17T18:21:32.304Z,5.10
2024-04-17T18:23:59.980Z,4.53
2024-04-17T18:26:29.915Z,4.85
2024-04-17T18:28:57.449Z,4.70
2024-04-17T18:31:24.880Z,5.70
2024-04-17T18:33:53.455Z,5.25
2024-04-17T18:36:24.032Z,3.83
2024-04-17T18:38:52.919Z,4.20
2024-04-17T18:41:25.412Z,6.25
2024-04-17T18:43:56.486Z,4.28
2024-04-17T18:46:26.597Z,5.13
2024-04-17T18:48:57.256Z,3.42
2024-04-17T18:51:24.977Z,3.97
2024-04-17T18:53:53.351Z,3.20
2024-04-17T18:56:26.864Z,3.85
2024-04-17T18:58:54.343Z,4.78
2024-04-17T19:01:22.681Z,3.40
2024-04-17T19:03:50.962Z,4.95
2024-04-17T19:06:20.043Z,5.53
2024-04-17T19:08:48.653Z,4.30
2024-04-17T19:11:16.867Z,5.55
2024-04-17T19:13:44.803Z,8.60
2024-04-17T19:16:22.031Z,11.02
2024-04-17T19:18:51.652Z,13.02
2024-04-17T19:21:19.542Z,12.05
2024-04-17T19:23:47.911Z,9.88
2024-04-17T19:26:15.976Z,8.70
2024-04-17T19:28:47.054Z,3.97
2024-04-17T19:31:15.069Z,6.53
2024-04-17T19:33:42.537Z,8.45
2024-04-17T19:36:14.443Z,10.80
2024-04-17T19:38:46.283Z,7.13
2024-04-17T19:41:13.790Z,5.95
2024-04-17T19:43:41.952Z,7.00
2024-04-17T19:46:10.546Z,8.25
2024-04-17T19:48:45.694Z,8.70
2024-04-17T19:51:15.999Z,7.88
2024-04-17T19:53:43.867Z,8.02
2024-04-17T19:56:14.785Z,9.95
2024-04-17T19:58:42.741Z,9.20
2024-04-17T20:01:11.075Z,8.57
2024-04-17T20:03:40.286Z,8.52
2024-04-17T20:06:09.011Z,7.20
2024-04-17T20:08:36.313Z,7.30
2024-04-17T20:11:04.331Z,6.25
2024-04-17T20:13:32.604Z,6.75
2024-04-17T20:16:03.801Z,7.28
2024-04-17T20:18:36.904Z,6.28
2024-04-17T20:21:07.213Z,7.53
2024-04-17T20:23:35.199Z,6.93
2024-04-17T20:26:07.646Z,6.15
2024-04-17T20:28:41.321Z,6.88
2024-04-17T20:31:15.636Z,5.72
2024-04-17T20:33:46.952Z,5.30
2024-04-17T20:36:18.021Z,5.03
2024-04-17T20:38:46.761Z,6.15
2024-04-17T20:41:14.811Z,4.95
2024-04-17T20:43:42.746Z,5.40
2024-04-17T20:46:12.072Z,4.78
2024-04-17T20:48:40.176Z,4.82
2024-04-17T20:51:08.452Z,4.10
2024-04-17T20:53:38.685Z,4.75
2024-04-17T20:56:10.058Z,4.70
2024-04-17T20:58:38.720Z,4.70
2024-04-17T21:01:08.898Z,5.95
2024-04-17T21:03:38.078Z,5.72
2024-04-17T21:06:10.555Z,6.20
2024-04-17T21:08:40.063Z,6.63
2024-04-17T21:11:09.345Z,6.18
2024-04-17T21:13:38.266Z,6.28
2024-04-17T21:16:20.969Z,8.07
2024-04-17T21:18:48.772Z,7.63
2024-04-17T21:21:16.041Z,6.75
2024-04-17T21:23:43.753Z,5.50
2024-04-17T21:26:15.907Z,5.57
2024-04-17T21:28:44.903Z,5.68
2024-04-17T21:31:18.963Z,7.15
2024-04-17T21:33:48.291Z,7.07
2024-04-17T21:38:44.258Z,5.82
2024-04-17T21:41:11.720Z,5.93
2024-04-17T21:43:39.545Z,5.72
2024-04-17T21:46:12.694Z,4.72
2024-04-17T21:48:43.040Z,7.28
2024-04-17T21:51:11.088Z,6.95
2024-04-17T21:53:41.276Z,7.07
2024-04-17T21:56:11.253Z,6.45
2024-04-17T21:58:39.128Z,7.95
2024-04-17T22:01:07.784Z,6.35
2024-04-17T22:03:35.892Z,4.70
2024-04-17T22:06:04.823Z,5.57
2024-04-17T22:08:32.829Z,4.25
2024-04-17T22:11:00.097Z,5.93
2024-04-17T22:13:27.589Z,6.60
2024-04-17T22:15:54.912Z,4.65
2024-04-17T22:18:22.499Z,4.28
2024-04-17T22:20:49.680Z,5.40
2024-04-17T22:23:17.067Z,5.70
2024-04-17T22:25:44.298Z,7.35
2024-04-17T22:28:11.738Z,5.47
2024-04-17T22:30:38.909Z,5.90
2024-04-17T22:33:06.293Z,4.93
2024-04-17T22:35:34.044Z,4.93
2024-04-17T22:38:01.269Z,4.15
2024-04-17T22:40:28.633Z,5.78
2024-04-17T22:42:57.459Z,4.80
2024-04-17T22:45:25.652Z,6.80
2024-04-17T22:47:53.069Z,4.78
2024-04-17T22:50:20.480Z,4.65
2024-04-17T22:52:47.696Z,5.25
2024-04-17T22:55:15.184Z,3.90
2024-04-17T22:57:42.438Z,3.63
2024-04-17T23:00:12.827Z,4.53
2024-04-17T23:02:40.366Z,4.93
2024-04-17T23:05:07.811Z,5.88
2024-04-17T23:07:35.102Z,5.78
2024-04-17T23:10:02.366Z,4.93
2024-04-17T23:12:31.007Z,4.47
2024-04-17T23:14:58.197Z,6.00
2024-04-17T23:17:25.492Z,5.65
2024-04-17T23:19:52.702Z,5.45
2024-04-17T23:22:20.130Z,5.18
2024-04-17T23:24:47.338Z,6.75
2024-04-17T23:27:14.762Z,7.95
2024-04-17T23:29:42.392Z,5.22
2024-04-17T23:32:09.655Z,5.82
2024-04-17T23:34:37.082Z,7.13
2024-04-17T23:37:04.469Z,6.22
2024-04-17T23:39:31.802Z,6.30
2024-04-17T23:41:59.274Z,5.93
2024-04-17T23:44:27.281Z,6.95
2024-04-17T23:46:54.870Z,6.07
2024-04-17T23:49:22.763Z,5.63
2024-04-17T23:51:50.253Z,6.63
2024-04-17T23:54:17.841Z,7.03
2024-04-17T23:56:45.124Z,6.70
2024-04-17T23:59:13.895Z,5.78
